Time;durP1;ratioP1;P1;durP2;ratioP2;P2;SDS_P1;SDS_P2;PMS_P1;PMS_P2;Temp;Humidity;BMP_temperature;BMP_pressure;BME280_temperature;BME280_humidity;BME280_pressure;Samples;Min_cycle;Max_cycle;Signal;HPM_P1;HPM_P2
2023/09/25 00:02:00;;;;;;;2.27;1.80;;;11.80;85.20;;;;;;933040;149;27376;-78
2023/09/25 00:04:28;;;;;;;4.80;2.00;;;11.70;85.40;;;;;;958841;144;27310;-77
2023/09/25 00:06:53;;;;;;;1.97;1.53;;;11.70;85.70;;;;;;958201;144;27377;-78
2023/09/25 00:09:20;;;;;;;1.80;1.70;;;11.60;86.00;;;;;;958173;144;27290;-78
2023/09/25 00:11:47;;;;;;;2.43;1.90;;;11.60;86.30;;;;;;960689;144;27410;-75
2023/09/25 00:14:13;;;;;;;1.97;1.77;;;11.60;86.90;;;;;;959709;144;27418;-77
2023/09/25 00:16:40;;;;;;;2.00;1.80;;;11.60;87.50;;;;;;959995;144;27361;-78
2023/09/25 00:19:06;;;;;;;2.87;2.10;;;11.60;87.80;;;;;;960793;148;27721;-77
2023/09/25 00:21:34;;;;;;;2.20;2.00;;;11.50;88.20;;;;;;957956;145;27335;-77
2023/09/25 00:24:00;;;;;;;2.43;2.23;;;11.50;89.00;;;;;;960302;145;27329;-76
2023/09/25 00:26:27;;;;;;;1.93;1.83;;;11.50;89.60;;;;;;959411;146;27343;-78
2023/09/25 00:28:53;;;;;;;2.10;2.00;;;11.50;90.00;;;;;;958646;145;27296;-78
2023/09/25 00:31:21;;;;;;;2.50;2.20;;;11.50;90.20;;;;;;958831;148;27423;-77
2023/09/25 00:33:46;;;;;;;2.10;2.00;;;11.50;90.40;;;;;;961075;148;27389;-75
2023/09/25 00:36:12;;;;;;;2.33;2.13;;;11.50;90.60;;;;;;958929;148;27346;-78
2023/09/25 00:38:39;;;;;;;2.70;2.27;;;11.50;90.90;;;;;;956482;146;27788;-78
2023/09/25 00:41:06;;;;;;;2.50;2.30;;;11.50;91.00;;;;;;958564;146;27285;-78
2023/09/25 00:43:32;;;;;;;3.13;2.03;;;11.50;91.10;;;;;;957783;148;27327;-77
2023/09/25 00:45:59;;;;;;;2.70;2.50;;;11.50;91.10;;;;;;959158;146;27999;-78
2023/09/25 00:48:28;;;;;;;2.40;2.20;;;11.40;91.10;;;;;;960379;145;27334;-78
2023/09/25 00:50:55;;;;;;;2.90;2.50;;;11.40;91.20;;;;;;959066;146;27403;-77
2023/09/25 00:53:21;;;;;;;2.07;1.87;;;11.40;91.30;;;;;;958798;148;27294;-76
2023/09/25 00:55:48;;;;;;;2.10;2.00;;;11.40;91.60;;;;;;955871;146;27378;-77
2023/09/25 00:58:14;;;;;;;2.33;2.10;;;11.30;91.80;;;;;;956973;146;27312;-77
2023/09/25 01:00:41;;;;;;;3.37;2.10;;;11.30;92.00;;;;;;957016;146;27397;-78
2023/09/25 01:03:08;;;;;;;2.20;2.10;;;11.30;92.30;;;;;;954595;149;27832;-77
2023/09/25 01:05:37;;;;;;;2.20;2.00;;;11.30;92.50;;;;;;953908;146;27333;-74
2023/09/25 01:08:03;;;;;;;2.40;2.20;;;11.20;92.60;;;;;;956563;146;27416;-76
2023/09/25 01:10:30;;;;;;;2.30;2.13;;;11.20;92.70;;;;;;954505;146;27379;-77
2023/09/25 01:12:57;;;;;;;2.10;2.00;;;11.20;92.90;;;;;;955453;146;27240;-75
2023/09/25 01:15:23;;;;;;;2.30;2.10;;;11.20;93.00;;;;;;954754;147;27423;-75
2023/09/25 01:17:51;;;;;;;2.53;2.33;;;11.10;93.10;;;;;;951414;145;27359;-77
2023/09/25 01:20:17;;;;;;;2.40;2.20;;;11.10;93.30;;;;;;950599;146;27355;-77
2023/09/25 01:22:44;;;;;;;4.53;2.17;;;11.10;93.50;;;;;;952810;145;27253;-76
2023/09/25 01:25:12;;;;;;;2.50;2.30;;;11.00;93.80;;;;;;953158;145;27372;-75
2023/09/25 01:27:44;;;;;;;2.37;1.97;;;11.00;94.10;;;;;;953122;146;27306;-77
2023/09/25 01:30:10;;;;;;;2.20;1.90;;;11.00;94.30;;;;;;952858;145;27644;-77
2023/09/25 01:32:37;;;;;;;2.13;2.03;;;11.00;94.40;;;;;;951666;145;27438;-75
2023/09/25 01:35:04;;;;;;;3.37;2.30;;;11.00;94.50;;;;;;951579;145;27328;-77
2023/09/25 01:37:30;;;;;;;2.20;2.10;;;11.00;94.60;;;;;;951914;145;27322;-77
2023/09/25 01:39:57;;;;;;;2.30;2.10;;;11.00;94.70;;;;;;954049;145;27250;-77
2023/09/25 01:42:24;;;;;;;2.00;1.90;;;10.90;94.70;;;;;;949228;145;27338;-75
2023/09/25 01:44:50;;;;;;;2.27;2.10;;;10.90;94.80;;;;;;951843;145;27314;-78
2023/09/25 01:47:17;;;;;;;3.13;2.13;;;10.90;94.80;;;;;;953461;145;27400;-78
2023/09/25 01:49:43;;;;;;;2.33;2.13;;;10.80;94.90;;;;;;951287;145;27363;-75
2023/09/25 01:52:12;;;;;;;3.30;2.53;;;10.80;94.80;;;;;;951297;145;27343;-76
2023/09/25 01:54:36;;;;;;;2.50;2.30;;;10.70;94.90;;;;;;950601;145;27326;-78
2023/09/25 01:57:04;;;;;;;2.43;2.23;;;10.70;94.90;;;;;;950303;145;27329;-78
2023/09/25 01:59:30;;;;;;;2.50;2.30;;;10.70;95.20;;;;;;950516;146;27400;-78
2023/09/25 02:01:56;;;;;;;3.83;2.33;;;10.60;95.30;;;;;;951174;145;27421;-77
2023/09/25 02:04:23;;;;;;;2.47;2.27;;;10.60;95.50;;;;;;950991;146;27334;-75
2023/09/25 02:06:49;;;;;;;1.97;1.87;;;10.50;95.50;;;;;;952317;145;27420;-77
2023/09/25 02:09:16;;;;;;;2.40;2.20;;;10.50;95.80;;;;;;949236;145;27340;-77
2023/09/25 02:11:42;;;;;;;2.57;2.20;;;10.50;95.90;;;;;;949884;145;27376;-77
2023/09/25 02:14:09;;;;;;;2.37;2.17;;;10.40;96.00;;;;;;950234;145;27311;-75
2023/09/25 02:16:36;;;;;;;1.70;1.60;;;10.40;96.40;;;;;;950591;145;27314;-78
2023/09/25 02:19:02;;;;;;;2.10;1.90;;;10.40;96.90;;;;;;950763;145;27263;-77
2023/09/25 02:21:29;;;;;;;2.27;2.07;;;10.40;97.40;;;;;;951289;145;27417;-78
2023/09/25 02:23:56;;;;;;;2.13;2.03;;;10.40;97.90;;;;;;950391;145;27323;-77
2023/09/25 02:26:22;;;;;;;2.67;2.27;;;10.40;98.20;;;;;;949850;145;27424;-75
2023/09/25 02:28:49;;;;;;;3.23;2.10;;;10.40;98.70;;;;;;951142;145;27287;-77
2023/09/25 02:31:15;;;;;;;2.17;2.00;;;10.40;98.90;;;;;;951305;145;27316;-78
2023/09/25 02:33:42;;;;;;;5.07;2.67;;;10.50;99.10;;;;;;951232;145;27408;-78
2023/09/25 02:36:11;;;;;;;2.50;2.30;;;10.50;99.10;;;;;;950350;145;28154;-75
2023/09/25 02:38:38;;;;;;;1.80;1.70;;;10.50;99.20;;;;;;949474;145;27346;-78
2023/09/25 02:41:04;;;;;;;2.30;2.10;;;10.50;99.20;;;;;;951507;145;27415;-77
2023/09/25 02:43:31;;;;;;;2.00;1.90;;;10.60;99.30;;;;;;950878;145;27377;-77
2023/09/25 02:45:58;;;;;;;2.20;2.07;;;10.60;99.30;;;;;;952257;145;27212;-75
2023/09/25 02:48:24;;;;;;;2.23;2.00;;;10.60;99.30;;;;;;951708;145;27433;-77
2023/09/25 02:50:51;;;;;;;2.70;2.03;;;10.60;99.30;;;;;;953842;145;27280;-77
2023/09/25 02:53:17;;;;;;;2.30;2.10;;;10.60;99.50;;;;;;951172;145;27409;-77
2023/09/25 02:55:50;;;;;;;2.50;2.30;;;10.60;99.50;;;;;;953362;145;27293;-76
2023/09/25 02:58:17;;;;;;;2.90;2.70;;;10.60;99.80;;;;;;950846;145;27330;-78
2023/09/25 03:00:44;;;;;;;2.30;2.10;;;10.60;99.70;;;;;;952345;144;27329;-78
2023/09/25 03:03:10;;;;;;;2.77;2.20;;;10.60;99.80;;;;;;951272;145;27311;-77
2023/09/25 03:05:39;;;;;;;2.73;2.37;;;10.60;99.80;;;;;;950473;145;27319;-74
2023/09/25 03:08:05;;;;;;;2.70;2.50;;;10.60;99.80;;;;;;951752;145;27407;-76
2023/09/25 03:10:32;;;;;;;2.47;2.20;;;10.60;99.90;;;;;;952363;145;27264;-76
2023/09/25 03:12:59;;;;;;;1.90;1.80;;;10.60;99.90;;;;;;952654;145;27360;-76
2023/09/25 03:15:25;;;;;;;2.63;2.27;;;10.60;99.90;;;;;;953868;145;27279;-76
2023/09/25 03:17:52;;;;;;;1.60;1.50;;;10.50;99.90;;;;;;952629;145;27456;-76
2023/09/25 03:20:18;;;;;;;2.07;1.97;;;10.50;99.90;;;;;;955316;146;27224;-76
2023/09/25 03:22:45;;;;;;;2.13;2.03;;;10.50;99.90;;;;;;956891;146;27301;-76
2023/09/25 03:25:11;;;;;;;2.50;2.30;;;10.50;99.90;;;;;;956922;146;27363;-76
2023/09/25 03:27:38;;;;;;;3.13;2.17;;;10.50;99.90;;;;;;955762;146;27405;-76
2023/09/25 03:30:05;;;;;;;2.73;2.27;;;10.50;99.90;;;;;;956380;146;27411;-76
2023/09/25 03:32:31;;;;;;;2.40;2.20;;;10.50;99.90;;;;;;956678;149;27303;-76
2023/09/25 03:34:58;;;;;;;2.30;2.13;;;10.50;99.90;;;;;;957220;146;27288;-76
2023/09/25 03:37:25;;;;;;;1.90;1.80;;;10.50;99.90;;;;;;957432;149;27387;-76
2023/09/25 03:39:51;;;;;;;2.13;2.03;;;10.40;99.90;;;;;;955922;146;27346;-76
2023/09/25 03:42:18;;;;;;;2.17;2.00;;;10.40;99.90;;;;;;956114;146;27323;-76
2023/09/25 03:44:44;;;;;;;2.47;2.27;;;10.40;99.90;;;;;;956097;146;27347;-76
2023/09/25 03:47:11;;;;;;;2.50;2.30;;;10.30;99.90;;;;;;956222;146;27286;-76
2023/09/25 03:49:39;;;;;;;2.73;2.53;;;10.30;99.90;;;;;;955306;146;27330;-76
2023/09/25 03:52:04;;;;;;;3.03;2.77;;;10.30;99.90;;;;;;955157;146;27396;-76
2023/09/25 03:54:31;;;;;;;3.77;2.40;;;10.30;99.90;;;;;;954398;146;27271;-76
2023/09/25 03:56:58;;;;;;;3.10;2.57;;;10.20;99.90;;;;;;955176;146;27331;-76
2023/09/25 03:59:24;;;;;;;2.83;2.17;;;10.20;99.90;;;;;;956929;149;27343;-76
2023/09/25 04:01:50;;;;;;;4.33;2.73;;;10.20;99.90;;;;;;956749;146;28802;-76
2023/09/25 04:04:17;;;;;;;2.80;2.60;;;10.10;99.90;;;;;;955939;149;27286;-76
2023/09/25 04:06:44;;;;;;;2.30;2.20;;;10.10;99.90;;;;;;955900;146;27296;-76
2023/09/25 04:09:10;;;;;;;2.33;2.13;;;10.10;99.90;;;;;;955579;147;27350;-76
2023/09/25 04:11:37;;;;;;;2.23;2.03;;;10.10;99.90;;;;;;955144;146;27453;-76
2023/09/25 04:14:03;;;;;;;2.60;2.40;;;10.10;99.90;;;;;;954973;146;27287;-76
2023/09/25 04:16:33;;;;;;;2.30;2.10;;;10.00;99.90;;;;;;956067;149;27436;-78
2023/09/25 04:18:58;;;;;;;3.30;2.20;;;10.00;99.90;;;;;;954492;145;27364;-76
2023/09/25 04:21:23;;;;;;;4.97;2.77;;;10.00;99.90;;;;;;953202;145;27317;-78
2023/09/25 04:23:50;;;;;;;3.60;3.30;;;9.90;99.90;;;;;;951325;145;27430;-77
2023/09/25 04:26:16;;;;;;;3.10;2.80;;;9.90;99.90;;;;;;949954;145;27291;-78
2023/09/25 04:28:43;;;;;;;3.23;2.80;;;9.90;99.90;;;;;;949962;145;27224;-77
2023/09/25 04:31:12;;;;;;;2.83;2.60;;;9.80;99.90;;;;;;952002;145;27432;-78
2023/09/25 04:33:38;;;;;;;2.70;2.50;;;9.80;99.90;;;;;;951553;145;27472;-79
2023/09/25 04:36:03;;;;;;;3.80;2.57;;;9.80;99.90;;;;;;951534;145;27706;-80
2023/09/25 04:38:30;;;;;;;2.70;2.50;;;9.80;99.90;;;;;;952012;145;27247;-77
2023/09/25 04:40:56;;;;;;;3.13;2.30;;;9.80;99.90;;;;;;951258;145;27471;-75
2023/09/25 04:43:22;;;;;;;2.50;2.13;;;9.90;99.90;;;;;;952045;145;27298;-78
2023/09/25 04:45:52;;;;;;;2.60;2.40;;;9.90;99.90;;;;;;950967;145;27275;-79
2023/09/25 04:48:21;;;;;;;2.10;2.00;;;9.90;99.90;;;;;;951727;145;27306;-78
2023/09/25 04:50:48;;;;;;;2.83;2.30;;;9.90;99.90;;;;;;950447;145;27388;-78
2023/09/25 04:53:14;;;;;;;2.67;2.47;;;10.00;99.90;;;;;;952223;145;27322;-78
2023/09/25 04:55:41;;;;;;;3.77;2.77;;;10.00;99.90;;;;;;954106;145;27380;-77
2023/09/25 04:58:07;;;;;;;3.50;2.60;;;10.00;99.90;;;;;;950135;145;27286;-78
2023/09/25 05:00:34;;;;;;;2.60;2.40;;;10.00;99.90;;;;;;953449;145;27307;-75
2023/09/25 05:03:01;;;;;;;2.50;2.30;;;9.90;99.90;;;;;;950669;145;27336;-78
2023/09/25 05:05:28;;;;;;;2.60;2.40;;;9.90;99.90;;;;;;952914;145;27308;-78
2023/09/25 05:07:54;;;;;;;2.30;2.20;;;9.90;99.90;;;;;;952098;145;27424;-79
2023/09/25 05:10:22;;;;;;;2.60;2.40;;;9.90;99.90;;;;;;951862;145;27352;-77
2023/09/25 05:12:47;;;;;;;2.47;2.27;;;9.80;99.90;;;;;;951544;145;27796;-80
2023/09/25 05:15:14;;;;;;;2.50;2.30;;;9.80;99.90;;;;;;950781;145;27308;-80
2023/09/25 05:17:40;;;;;;;3.10;2.10;;;9.80;99.90;;;;;;953370;145;27287;-80
2023/09/25 05:20:15;;;;;;;2.50;2.30;;;9.70;99.90;;;;;;955710;146;27429;-80
2023/09/25 05:22:37;;;;;;;2.43;1.90;;;9.70;99.90;;;;;;953208;149;27484;-75
2023/09/25 05:25:03;;;;;;;2.70;2.50;;;9.70;99.90;;;;;;957375;148;28848;-78
2023/09/25 05:27:29;;;;;;;2.23;2.03;;;9.70;99.90;;;;;;956501;148;27247;-75
2023/09/25 05:29:57;;;;;;;2.80;2.43;;;9.70;99.90;;;;;;956124;146;27232;-75
2023/09/25 05:32:23;;;;;;;2.50;2.30;;;9.70;99.90;;;;;;955304;146;27497;-76
2023/09/25 05:34:49;;;;;;;4.17;2.50;;;9.60;99.90;;;;;;956753;146;27302;-76
2023/09/25 05:37:15;;;;;;;2.20;2.03;;;9.60;99.90;;;;;;958596;146;27314;-76
2023/09/25 05:39:42;;;;;;;2.87;2.37;;;9.60;99.90;;;;;;956086;146;27319;-76
2023/09/25 05:42:09;;;;;;;2.37;2.17;;;9.70;99.90;;;;;;956750;146;27428;-76
2023/09/25 05:44:35;;;;;;;3.23;2.77;;;9.80;99.90;;;;;;956581;146;27344;-76
2023/09/25 05:47:02;;;;;;;3.93;3.00;;;10.00;99.90;;;;;;955317;146;27391;-76
2023/09/25 05:49:28;;;;;;;2.93;2.70;;;10.40;99.90;;;;;;956818;149;27306;-76
2023/09/25 05:51:55;;;;;;;3.03;2.80;;;10.70;99.90;;;;;;956363;146;27317;-76
2023/09/25 05:54:22;;;;;;;3.53;2.67;;;11.20;99.90;;;;;;957239;146;27419;-76
2023/09/25 05:56:48;;;;;;;2.20;2.00;;;11.60;99.90;;;;;;953885;146;27228;-76
2023/09/25 05:59:15;;;;;;;3.30;2.23;;;12.20;99.90;;;;;;955583;149;27314;-76
2023/09/25 06:01:42;;;;;;;2.57;2.27;;;12.60;99.90;;;;;;956222;146;27394;-76
2023/09/25 06:04:08;;;;;;;2.33;2.00;;;13.20;99.90;;;;;;956995;146;27439;-76
2023/09/25 06:06:35;;;;;;;1.90;1.80;;;13.70;99.90;;;;;;955797;147;27256;-76
2023/09/25 06:09:01;;;;;;;2.13;1.90;;;14.20;99.90;;;;;;958100;146;27349;-76
2023/09/25 06:11:28;;;;;;;2.33;1.80;;;14.70;99.90;;;;;;957084;146;27388;-76
2023/09/25 06:13:54;;;;;;;2.70;2.22;;;15.20;99.90;;;;;;956831;146;27414;-76
2023/09/25 06:16:21;;;;;;;5.33;1.70;;;15.70;99.90;;;;;;954648;147;28679;-76
2023/09/25 06:18:48;;;;;;;2.47;1.80;;;16.20;99.90;;;;;;937368;150;27455;-77
2023/09/25 06:21:14;;;;;;;1.92;1.77;;;16.70;99.90;;;;;;946793;147;27373;-77
2023/09/25 06:23:41;;;;;;;1.82;1.70;;;17.30;99.90;;;;;;921227;150;27352;-77
2023/09/25 06:26:07;;;;;;;1.80;1.62;;;17.80;99.40;;;;;;921459;151;27391;-77
2023/09/25 06:28:34;;;;;;;2.17;1.60;;;18.40;98.00;;;;;;935804;148;27353;-77
2023/09/25 06:31:00;;;;;;;2.42;1.80;;;18.90;96.80;;;;;;937550;148;27255;-77
2023/09/25 06:33:28;;;;;;;2.25;2.05;;;19.40;94.70;;;;;;938643;148;27398;-77
2023/09/25 06:35:54;;;;;;;1.90;1.80;;;20.00;92.90;;;;;;941697;148;27377;-75
2023/09/25 06:38:20;;;;;;;2.87;1.87;;;20.50;91.50;;;;;;942660;148;27262;-76
2023/09/25 06:40:47;;;;;;;1.80;1.70;;;21.00;90.30;;;;;;940005;148;27275;-75
2023/09/25 06:43:13;;;;;;;1.87;1.62;;;21.60;88.00;;;;;;941560;148;27374;-76
2023/09/25 06:45:40;;;;;;;2.33;1.32;;;22.20;85.70;;;;;;941879;148;27265;-74
2023/09/25 06:48:06;;;;;;;1.77;1.65;;;22.70;83.30;;;;;;943241;148;27421;-77
2023/09/25 06:50:33;;;;;;;2.20;2.00;;;23.30;81.20;;;;;;943262;148;27704;-75
2023/09/25 06:53:00;;;;;;;2.50;1.77;;;23.80;79.00;;;;;;942615;148;27870;-74
2023/09/25 06:55:26;;;;;;;1.55;1.45;;;24.40;77.10;;;;;;941512;148;27290;-78
2023/09/25 06:57:53;;;;;;;1.90;1.80;;;24.90;75.40;;;;;;943469;148;28267;-74
2023/09/25 07:00:19;;;;;;;3.15;1.77;;;25.50;73.90;;;;;;942739;148;27788;-75
2023/09/25 07:02:46;;;;;;;1.77;1.45;;;26.10;72.40;;;;;;942079;148;27204;-75
2023/09/25 07:05:13;;;;;;;2.22;1.67;;;26.70;70.40;;;;;;941843;148;27329;-78
2023/09/25 07:07:39;;;;;;;3.75;2.20;;;27.20;68.50;;;;;;941715;148;27639;-75
2023/09/25 07:10:09;;;;;;;2.95;1.87;;;27.70;66.60;;;;;;941850;148;27301;-74
2023/09/25 07:12:35;;;;;;;2.15;1.95;;;28.10;64.70;;;;;;941762;148;27278;-75
2023/09/25 07:15:02;;;;;;;2.20;1.70;;;28.40;63.00;;;;;;943770;148;27361;-77
2023/09/25 07:17:28;;;;;;;3.00;1.70;;;28.70;61.70;;;;;;943607;148;27304;-75
2023/09/25 07:19:57;;;;;;;2.05;1.90;;;29.00;61.10;;;;;;941724;148;27227;-75
2023/09/25 07:22:25;;;;;;;1.98;1.70;;;29.40;60.40;;;;;;942870;148;27292;-75
2023/09/25 07:24:51;;;;;;;2.05;1.87;;;29.70;59.60;;;;;;942736;147;27372;-77
2023/09/25 07:27:17;;;;;;;1.80;1.70;;;30.00;58.80;;;;;;942882;148;27284;-76
2023/09/25 07:29:44;;;;;;;2.70;1.77;;;30.30;58.10;;;;;;943353;148;27348;-76
2023/09/25 07:32:11;;;;;;;2.67;2.10;;;30.50;57.60;;;;;;941516;148;27283;-75
2023/09/25 07:34:37;;;;;;;2.15;1.65;;;30.80;57.10;;;;;;943050;148;26266;-77
2023/09/25 07:37:04;;;;;;;1.82;1.72;;;31.10;56.90;;;;;;940285;148;26223;-75
2023/09/25 07:39:30;;;;;;;2.10;1.90;;;31.40;56.30;;;;;;941006;147;27291;-74
2023/09/25 07:41:57;;;;;;;2.12;1.77;;;31.70;56.00;;;;;;943257;147;27170;-75
2023/09/25 07:44:26;;;;;;;1.87;1.70;;;32.10;55.10;;;;;;942026;147;27722;-76
2023/09/25 07:46:59;;;;;;;2.02;1.90;;;32.30;54.40;;;;;;940518;147;27398;-74
2023/09/25 07:49:22;;;;;;;2.35;1.75;;;32.60;53.80;;;;;;941836;147;27264;-74
2023/09/25 07:51:49;;;;;;;2.02;1.77;;;32.70;53.00;;;;;;945492;147;27346;-76
2023/09/25 07:54:15;;;;;;;1.92;1.70;;;33.00;52.70;;;;;;943682;147;27299;-75
2023/09/25 07:56:42;;;;;;;3.22;1.80;;;33.10;52.20;;;;;;943647;147;27273;-74
2023/09/25 07:59:10;;;;;;;2.98;2.10;;;33.30;52.00;;;;;;943662;147;27428;-73
2023/09/25 08:01:38;;;;;;;2.15;1.82;;;33.50;51.60;;;;;;942507;147;27285;-73
2023/09/25 08:04:02;;;;;;;2.10;1.90;;;33.70;51.10;;;;;;942811;148;26196;-74
2023/09/25 08:06:28;;;;;;;2.25;1.55;;;33.90;50.70;;;;;;942064;148;27276;-73
2023/09/25 08:08:57;;;;;;;1.42;1.32;;;34.10;49.70;;;;;;940607;147;27352;-74
2023/09/25 08:11:21;;;;;;;1.95;1.60;;;34.20;49.50;;;;;;941718;147;27266;-75
2023/09/25 08:13:49;;;;;;;2.02;1.72;;;34.40;49.00;;;;;;944095;147;27271;-77
2023/09/25 08:16:16;;;;;;;1.87;1.75;;;34.50;48.70;;;;;;942880;147;26309;-73
2023/09/25 08:18:41;;;;;;;2.15;1.55;;;34.60;48.30;;;;;;942171;148;28333;-74
2023/09/25 08:21:09;;;;;;;2.35;1.42;;;34.70;47.80;;;;;;943290;147;26228;-74
2023/09/25 08:23:34;;;;;;;1.40;1.27;;;34.80;48.20;;;;;;952290;149;27294;-74
2023/09/25 08:26:01;;;;;;;2.25;1.45;;;34.80;47.30;;;;;;953412;147;26123;-74
2023/09/25 08:28:29;;;;;;;1.30;1.15;;;34.90;47.10;;;;;;953093;149;27332;-73
2023/09/25 08:30:54;;;;;;;1.40;1.30;;;34.90;46.90;;;;;;953152;147;26322;-74
2023/09/25 08:33:21;;;;;;;1.65;1.22;;;34.90;46.50;;;;;;953900;147;26253;-73
2023/09/25 08:35:47;;;;;;;1.25;1.15;;;34.90;46.30;;;;;;953867;147;26259;-77
2023/09/25 08:38:14;;;;;;;1.60;1.17;;;34.90;46.20;;;;;;954134;149;26617;-74
2023/09/25 08:40:41;;;;;;;1.27;1.15;;;35.00;45.80;;;;;;952881;147;26313;-74
2023/09/25 08:43:07;;;;;;;1.82;1.32;;;35.00;45.60;;;;;;951417;146;26233;-73
2023/09/25 08:45:34;;;;;;;1.22;1.12;;;35.10;45.50;;;;;;950908;146;26309;-77
2023/09/25 08:48:00;;;;;;;1.75;1.50;;;35.10;45.40;;;;;;952096;146;26549;-76
2023/09/25 08:50:27;;;;;;;1.30;1.20;;;35.30;45.30;;;;;;952097;146;26261;-74
2023/09/25 08:52:56;;;;;;;1.30;1.20;;;35.40;45.30;;;;;;952985;146;26224;-72
2023/09/25 08:55:20;;;;;;;2.02;1.27;;;35.50;45.40;;;;;;951652;149;26218;-74
2023/09/25 08:57:47;;;;;;;1.32;1.22;;;35.80;45.00;;;;;;953174;146;26256;-79
2023/09/25 09:00:15;;;;;;;1.10;1.00;;;36.00;44.60;;;;;;952525;147;26223;-80
2023/09/25 09:02:43;;;;;;;1.20;1.10;;;36.20;44.10;;;;;;953986;149;26343;-80
2023/09/25 09:05:12;;;;;;;1.77;1.30;;;36.50;43.60;;;;;;951417;149;26272;-77
2023/09/25 09:07:38;;;;;;;2.67;1.32;;;36.50;43.20;;;;;;951406;146;26287;-78
2023/09/25 09:10:05;;;;;;;1.02;0.95;;;36.70;42.80;;;;;;952611;146;26244;-79
2023/09/25 09:12:32;;;;;;;1.15;1.07;;;36.70;42.30;;;;;;953434;147;26305;-79
2023/09/25 09:14:58;;;;;;;1.30;1.12;;;36.70;42.10;;;;;;952801;149;26265;-80
2023/09/25 09:17:24;;;;;;;1.10;1.07;;;36.70;41.40;;;;;;952157;146;26261;-80
2023/09/25 09:19:52;;;;;;;1.12;1.12;;;36.60;41.10;;;;;;952727;149;26217;-79
2023/09/25 09:22:18;;;;;;;2.83;1.20;;;36.50;40.80;;;;;;951444;145;26343;-80
2023/09/25 09:24:44;;;;;;;1.22;1.22;;;36.30;40.20;;;;;;951524;145;26182;-77
2023/09/25 09:27:11;;;;;;;1.25;1.15;;;36.00;40.30;;;;;;950894;145;26892;-80
2023/09/25 09:29:40;;;;;;;1.35;1.25;;;35.80;40.30;;;;;;950391;145;26210;-79
2023/09/25 09:32:06;;;;;;;1.17;1.05;;;35.50;40.30;;;;;;951488;145;26204;-80
2023/09/25 09:34:33;;;;;;;1.30;1.20;;;35.20;40.30;;;;;;954428;145;26579;-77
2023/09/25 09:37:00;;;;;;;1.15;1.15;;;34.90;40.00;;;;;;951449;145;27393;-80
2023/09/25 09:39:26;;;;;;;1.87;1.30;;;34.50;40.00;;;;;;951213;145;26567;-79
2023/09/25 09:41:53;;;;;;;2.20;1.50;;;34.20;40.30;;;;;;949989;145;27293;-79
2023/09/25 09:44:19;;;;;;;2.83;1.40;;;33.80;40.40;;;;;;951147;145;27358;-78
2023/09/25 09:46:46;;;;;;;2.17;1.45;;;33.40;40.70;;;;;;952195;145;27454;-80
2023/09/25 09:49:15;;;;;;;1.37;1.27;;;33.00;40.90;;;;;;952968;145;27378;-79
2023/09/25 09:51:45;;;;;;;1.82;1.17;;;32.70;41.10;;;;;;953027;145;27255;-76
2023/09/25 09:54:14;;;;;;;1.35;1.25;;;32.30;41.30;;;;;;950447;145;27398;-78
2023/09/25 09:56:41;;;;;;;1.95;1.40;;;32.00;41.20;;;;;;951073;145;27722;-80
2023/09/25 09:59:07;;;;;;;1.72;1.40;;;31.60;41.20;;;;;;949216;145;27325;-80
2023/09/25 10:01:34;;;;;;;1.50;1.40;;;31.30;41.30;;;;;;952326;145;27333;-80
2023/09/25 10:04:05;;;;;;;1.22;1.12;;;31.00;41.30;;;;;;952031;145;27857;-76
2023/09/25 10:06:30;;;;;;;3.20;1.42;;;30.60;41.40;;;;;;952430;145;27448;-75
2023/09/25 10:08:59;;;;;;;2.17;1.67;;;30.20;41.60;;;;;;952475;145;27329;-76
2023/09/25 10:11:26;;;;;;;1.98;1.30;;;29.80;41.70;;;;;;951186;145;27387;-76
2023/09/25 10:13:55;;;;;;;1.47;1.37;;;29.40;42.10;;;;;;950602;145;27332;-76
2023/09/25 10:16:22;;;;;;;2.67;1.70;;;29.10;42.40;;;;;;951975;145;27339;-76
2023/09/25 10:18:48;;;;;;;1.45;1.35;;;28.80;42.50;;;;;;953029;145;27365;-76
2023/09/25 10:21:15;;;;;;;1.55;1.35;;;28.50;42.50;;;;;;951468;145;27348;-76
2023/09/25 10:23:42;;;;;;;2.50;1.47;;;28.10;42.70;;;;;;950183;145;27900;-76
2023/09/25 10:26:24;;;;;;;1.50;1.40;;;27.80;42.90;;;;;;952614;145;27309;-75
2023/09/25 10:29:08;;;;;;;1.42;1.32;;;27.50;43.10;;;;;;951987;145;27313;-75
2023/09/25 10:31:35;;;;;;;1.80;1.50;;;27.20;43.40;;;;;;951815;145;27340;-75
2023/09/25 10:34:01;;;;;;;1.95;1.50;;;26.90;43.90;;;;;;951510;145;27318;-75
2023/09/25 10:36:37;;;;;;;1.55;1.37;;;26.60;44.20;;;;;;950065;145;27332;-75
2023/09/25 10:39:13;;;;;;;1.55;1.30;;;26.40;44.60;;;;;;952369;145;27363;-75
2023/09/25 10:41:37;;;;;;;1.22;1.10;;;26.20;44.90;;;;;;951553;145;27369;-75
2023/09/25 10:44:03;;;;;;;1.65;1.20;;;26.10;45.20;;;;;;951871;145;27292;-75
2023/09/25 10:46:30;;;;;;;1.42;1.22;;;25.90;45.30;;;;;;952621;145;27743;-76
2023/09/25 10:48:56;;;;;;;2.12;1.27;;;25.80;45.50;;;;;;953014;145;27438;-75
2023/09/25 10:51:22;;;;;;;1.50;1.40;;;25.70;45.50;;;;;;950518;145;27415;-75
2023/09/25 10:53:49;;;;;;;1.32;1.22;;;25.60;45.80;;;;;;950736;145;27373;-75
2023/09/25 10:56:16;;;;;;;1.32;1.22;;;25.50;46.00;;;;;;954981;145;27366;-75
2023/09/25 10:58:43;;;;;;;1.32;1.22;;;25.50;46.10;;;;;;950298;145;27339;-75
2023/09/25 11:01:09;;;;;;;2.92;1.57;;;25.40;46.20;;;;;;951896;145;28253;-75
2023/09/25 11:03:35;;;;;;;1.22;1.12;;;25.30;46.30;;;;;;952116;145;27280;-75
2023/09/25 11:06:02;;;;;;;1.60;1.20;;;25.30;46.60;;;;;;953149;145;27292;-75
2023/09/25 11:08:28;;;;;;;1.40;1.30;;;25.20;46.80;;;;;;949057;145;27339;-75
2023/09/25 11:10:55;;;;;;;1.60;1.50;;;25.20;46.60;;;;;;952063;145;28535;-75
2023/09/25 11:13:22;;;;;;;1.57;1.47;;;25.20;46.80;;;;;;951074;145;27287;-75
2023/09/25 11:15:48;;;;;;;1.72;1.35;;;25.20;46.90;;;;;;952854;145;27308;-75
2023/09/25 11:18:15;;;;;;;1.10;0.98;;;25.10;46.70;;;;;;953911;145;27341;-75
2023/09/25 11:20:43;;;;;;;1.27;1.17;;;25.10;46.70;;;;;;950952;145;27621;-75
2023/09/25 11:23:14;;;;;;;4.03;1.40;;;25.10;46.80;;;;;;955750;144;27347;-75
2023/09/25 11:25:53;;;;;;;1.55;1.22;;;25.10;46.90;;;;;;969472;144;27303;-75
2023/09/25 11:28:22;;;;;;;1.35;1.22;;;25.00;46.90;;;;;;971006;144;27293;-75
2023/09/25 11:30:48;;;;;;;1.12;1.02;;;25.00;47.10;;;;;;970594;144;27358;-75
2023/09/25 11:33:20;;;;;;;1.40;1.30;;;25.00;47.30;;;;;;969390;144;27431;-76
2023/09/25 11:35:49;;;;;;;1.00;1.00;;;24.90;47.40;;;;;;970486;144;27417;-76
2023/09/25 11:38:15;;;;;;;2.30;1.20;;;24.90;47.10;;;;;;971521;144;27351;-76
2023/09/25 11:40:40;;;;;;;1.07;1.07;;;24.80;46.90;;;;;;970467;144;27310;-76
2023/09/25 11:43:07;;;;;;;1.20;1.10;;;24.80;46.80;;;;;;969584;144;27304;-76
2023/09/25 11:45:34;;;;;;;1.17;1.07;;;24.70;46.70;;;;;;972318;144;27354;-76
2023/09/25 11:48:03;;;;;;;2.35;1.37;;;24.70;46.70;;;;;;971846;144;27339;-76
2023/09/25 11:50:27;;;;;;;2.42;1.10;;;24.70;46.90;;;;;;971862;144;27644;-76
2023/09/25 11:52:53;;;;;;;1.35;1.17;;;24.60;46.90;;;;;;970671;144;27303;-76
2023/09/25 11:55:20;;;;;;;3.67;1.25;;;24.50;46.90;;;;;;971970;144;27387;-76
2023/09/25 11:57:46;;;;;;;1.45;1.20;;;24.50;47.00;;;;;;971299;144;27362;-76
2023/09/25 12:00:13;;;;;;;1.10;1.10;;;24.50;47.00;;;;;;971846;144;27340;-76
2023/09/25 12:02:41;;;;;;;1.37;1.27;;;24.50;47.10;;;;;;972060;144;27290;-76
2023/09/25 12:05:06;;;;;;;1.42;1.32;;;24.40;47.10;;;;;;971892;144;27379;-75
2023/09/25 12:07:39;;;;;;;2.00;1.37;;;24.40;47.10;;;;;;968909;144;27295;-76
2023/09/25 12:10:08;;;;;;;1.32;1.22;;;24.30;47.10;;;;;;971825;144;27377;-76
2023/09/25 12:12:38;;;;;;;1.60;1.17;;;24.30;47.20;;;;;;968903;144;27294;-76
2023/09/25 12:15:05;;;;;;;1.52;1.30;;;24.30;47.20;;;;;;972294;144;27387;-76
2023/09/25 12:17:31;;;;;;;1.10;1.00;;;24.30;47.30;;;;;;971456;144;27290;-76
2023/09/25 12:19:58;;;;;;;1.30;1.10;;;24.30;47.30;;;;;;973815;144;27355;-76
2023/09/25 12:22:24;;;;;;;1.00;0.90;;;24.30;47.20;;;;;;971771;144;27247;-76
2023/09/25 12:24:51;;;;;;;1.22;0.90;;;24.30;47.10;;;;;;957168;144;27439;-76
2023/09/25 12:27:17;;;;;;;1.07;1.07;;;24.20;47.10;;;;;;951019;145;27362;-76
2023/09/25 12:29:44;;;;;;;1.90;1.20;;;24.20;47.80;;;;;;954597;145;27328;-76
2023/09/25 12:32:10;;;;;;;1.15;1.05;;;24.20;47.30;;;;;;952675;145;27296;-76
2023/09/25 12:34:37;;;;;;;2.25;1.20;;;24.20;47.40;;;;;;952627;145;27888;-76
2023/09/25 12:37:04;;;;;;;1.22;1.05;;;24.10;47.60;;;;;;951455;145;27670;-76
2023/09/25 12:39:30;;;;;;;2.55;1.20;;;24.10;47.60;;;;;;954042;145;27778;-76
2023/09/25 12:41:57;;;;;;;1.07;1.07;;;24.20;47.80;;;;;;952902;145;27327;-76
2023/09/25 12:44:24;;;;;;;1.15;1.10;;;24.20;47.60;;;;;;953319;145;27312;-76
2023/09/25 12:46:50;;;;;;;2.55;1.20;;;24.20;47.60;;;;;;951476;145;27316;-76